Time;durP1;ratioP1;P1;durP2;ratioP2;P2;SDS_P1;SDS_P2;PMS_P1;PMS_P2;Temp;Humidity;BMP_temperature;BMP_pressure;BME280_temperature;BME280_humidity;BME280_pressure;Samples;Min_cycle;Max_cycle;Signal;HPM_P1;HPM_P2
2023/07/29 00:00:50;;;;;;;3.80;2.92;;;;;;;24.09;34.56;99363.81;5090338;28;20097;-46
2023/07/29 00:03:15;;;;;;;6.45;3.00;;;;;;;23.93;34.50;99359.78;5090215;28;20047;-47
2023/07/29 00:05:41;;;;;;;4.53;3.10;;;;;;;23.91;34.04;99364.72;5090303;28;20046;-45
2023/07/29 00:08:07;;;;;;;5.30;2.75;;;;;;;23.84;34.33;99358.84;5090142;28;20368;-47
2023/07/29 00:10:35;;;;;;;5.05;2.60;;;;;;;23.91;34.54;99362.00;5090288;28;20458;-47
2023/07/29 00:13:00;;;;;;;5.97;2.90;;;;;;;23.96;34.21;99353.75;5090150;28;20031;-47
2023/07/29 00:15:26;;;;;;;4.47;3.00;;;;;;;23.90;34.73;99350.31;5090332;28;20424;-47
2023/07/29 00:17:51;;;;;;;5.25;2.90;;;;;;;23.86;34.82;99346.59;5090305;28;20024;-46
2023/07/29 00:20:17;;;;;;;4.20;2.90;;;;;;;23.85;34.84;99344.19;5090354;28;20024;-47
2023/07/29 00:22:43;;;;;;;3.13;2.72;;;;;;;23.83;34.41;99359.97;5090136;28;20391;-46
2023/07/29 00:25:08;;;;;;;2.97;2.58;;;;;;;23.88;34.60;99354.47;5089922;28;20028;-47
2023/07/29 00:27:34;;;;;;;3.70;2.60;;;;;;;23.66;34.59;99352.38;5090084;28;20028;-42
2023/07/29 00:29:59;;;;;;;7.10;3.25;;;;;;;23.49;35.30;99358.38;5089446;28;20028;-47
2023/07/29 00:32:29;;;;;;;3.65;2.90;;;;;;;22.94;36.13;99367.94;5089974;28;20379;-46
2023/07/29 00:34:54;;;;;;;4.65;3.17;;;;;;;22.76;36.77;99366.84;5089911;28;20028;-46
2023/07/29 00:37:20;;;;;;;3.55;3.05;;;;;;;22.77;36.95;99364.91;5090088;28;20567;-44
2023/07/29 00:39:45;;;;;;;4.05;2.78;;;;;;;22.77;37.56;99362.19;5090343;28;20034;-46
2023/07/29 00:42:11;;;;;;;4.80;3.03;;;;;;;22.88;37.67;99366.38;5090074;28;20196;-44
2023/07/29 00:44:36;;;;;;;4.65;3.03;;;;;;;23.05;37.14;99365.09;5090179;28;20027;-48
2023/07/29 00:47:04;;;;;;;5.75;2.97;;;;;;;23.08;36.99;99367.22;5090021;28;20016;-45
2023/07/29 00:49:30;;;;;;;3.90;2.80;;;;;;;23.02;36.71;99371.88;5090082;28;20028;-48
2023/07/29 00:51:56;;;;;;;6.13;3.00;;;;;;;22.76;37.36;99372.25;5090150;28;20461;-45
2023/07/29 00:54:22;;;;;;;3.78;2.60;;;;;;;22.27;38.81;99357.19;5090162;28;20036;-44
2023/07/29 00:56:47;;;;;;;4.95;2.88;;;;;;;22.43;38.67;99365.94;5089972;28;20107;-46
2023/07/29 00:59:13;;;;;;;4.18;2.92;;;;;;;22.43;39.13;99361.31;5089894;28;20111;-43
2023/07/29 01:01:38;;;;;;;5.78;2.95;;;;;;;22.62;38.67;99358.63;5089713;28;20065;-48
2023/07/29 01:04:04;;;;;;;3.38;2.55;;;;;;;22.58;38.79;99352.19;5090326;28;20119;-43
2023/07/29 01:06:46;;;;;;;6.18;2.72;;;;;;;22.38;39.28;99347.03;5090464;28;20036;-44
2023/07/29 01:09:17;;;;;;;5.22;3.10;;;;;;;22.01;40.14;99354.75;5090613;28;20124;-44
2023/07/29 01:11:57;;;;;;;3.72;2.78;;;;;;;22.14;40.21;99355.97;5090601;28;20031;-45
2023/07/29 01:14:45;;;;;;;4.55;2.97;;;;;;;22.23;40.18;99365.06;5090493;28;20024;-45
2023/07/29 01:17:15;;;;;;;4.65;2.97;;;;;;;22.35;40.42;99358.44;5090755;28;20093;-45
2023/07/29 01:20:06;;;;;;;6.00;3.00;;;;;;;22.44;39.95;99351.28;5090456;28;20085;-45
2023/07/29 01:22:33;;;;;;;;;;;;;;;22.25;40.41;99359.38;5090752;28;20028;-48
2023/07/29 01:24:59;;;;;;;5.10;2.83;;;;;;;22.29;40.63;99359.59;5089985;28;19937;-45
2023/07/29 01:27:26;;;;;;;5.22;3.05;;;;;;;22.38;40.23;99358.66;5090273;28;20459;-43
2023/07/29 01:29:52;;;;;;;4.35;2.90;;;;;;;22.38;40.90;99364.09;5090272;28;20046;-46
2023/07/29 01:32:25;;;;;;;6.85;3.05;;;;;;;22.30;40.57;99362.03;5090326;28;20043;-46
2023/07/29 01:35:06;;;;;;;5.43;2.90;;;;;;;22.36;40.61;99365.50;5090174;28;20475;-45
2023/07/29 01:37:34;;;;;;;6.53;3.00;;;;;;;22.45;40.36;99364.53;5090572;28;20033;-47
2023/07/29 01:40:00;;;;;;;5.45;2.92;;;;;;;22.39;40.59;99364.88;5090050;28;20024;-45
2023/07/29 01:42:26;;;;;;;3.33;2.78;;;;;;;22.42;40.62;99369.75;5094012;28;20027;-44
2023/07/29 01:44:52;;;;;;;3.60;2.78;;;;;;;22.35;40.87;99370.13;5093900;28;20028;-45
2023/07/29 01:47:17;;;;;;;4.72;3.20;;;;;;;22.39;40.97;99356.75;5094036;28;20499;-48
2023/07/29 01:49:43;;;;;;;5.32;2.88;;;;;;;22.28;41.39;99363.44;5093916;28;20031;-47
2023/07/29 01:52:08;;;;;;;3.85;3.00;;;;;;;22.34;40.94;99362.25;5093873;28;20028;-41
2023/07/29 01:54:34;;;;;;;4.47;2.97;;;;;;;22.15;41.91;99373.84;5093463;28;20035;-47
2023/07/29 01:56:59;;;;;;;3.72;3.00;;;;;;;22.17;41.73;99374.34;5093659;28;20032;-44
2023/07/29 01:59:24;;;;;;;6.43;3.50;;;;;;;22.22;41.77;99379.72;5093688;28;20040;-44
2023/07/29 02:01:50;;;;;;;5.68;3.05;;;;;;;22.24;41.84;99379.44;5093351;28;20027;-47
2023/07/29 02:04:15;;;;;;;6.38;3.30;;;;;;;22.24;41.91;99376.72;5093829;28;20032;-47
2023/07/29 02:06:41;;;;;;;4.95;3.40;;;;;;;22.35;41.58;99374.69;5093775;28;20024;-44
2023/07/29 02:09:06;;;;;;;4.68;3.50;;;;;;;22.43;41.41;99387.63;5093332;28;20059;-45
2023/07/29 02:11:31;;;;;;;4.50;3.63;;;;;;;22.68;41.19;99383.78;5093296;28;20066;-47
2023/07/29 02:13:57;;;;;;;5.13;3.60;;;;;;;22.34;41.94;99386.66;5093431;28;20082;-45
2023/07/29 02:16:23;;;;;;;4.22;3.55;;;;;;;22.41;41.69;99389.81;5093207;28;20028;-45
2023/07/29 02:18:49;;;;;;;6.85;3.65;;;;;;;22.48;41.53;99398.38;5093285;28;20036;-47
2023/07/29 02:21:15;;;;;;;6.15;3.53;;;;;;;22.35;41.67;99401.81;5093158;28;20359;-46
2023/07/29 02:23:41;;;;;;;5.10;3.70;;;;;;;22.36;41.77;99398.81;5092879;28;20024;-42
2023/07/29 02:26:06;;;;;;;5.20;3.92;;;;;;;22.32;41.97;99394.28;5093055;28;20111;-46
2023/07/29 02:28:32;;;;;;;5.93;3.72;;;;;;;22.37;41.70;99391.47;5092897;28;20024;-45
2023/07/29 02:31:10;;;;;;;4.95;3.60;;;;;;;22.40;41.78;99386.28;5093228;28;20115;-45
2023/07/29 02:33:36;;;;;;;4.82;3.58;;;;;;;22.40;41.66;99386.28;5092911;28;20032;-46
2023/07/29 02:36:01;;;;;;;7.78;3.80;;;;;;;22.49;41.88;99391.88;5093007;28;20113;-42
2023/07/29 02:38:26;;;;;;;7.13;3.53;;;;;;;22.31;41.96;99390.72;5093122;28;20123;-43
2023/07/29 02:40:52;;;;;;;6.28;3.67;;;;;;;22.28;42.62;99390.53;5077619;28;20101;-43
2023/07/29 02:43:17;;;;;;;4.75;3.53;;;;;;;22.27;42.30;99400.53;5074077;28;20025;-47
2023/07/29 02:45:43;;;;;;;4.38;3.50;;;;;;;22.32;42.21;99396.97;5092832;28;20031;-45
2023/07/29 02:48:08;;;;;;;5.57;3.75;;;;;;;22.29;42.19;99395.63;5092535;28;20502;-44
2023/07/29 02:50:34;;;;;;;5.00;3.70;;;;;;;22.28;42.24;99396.75;5080047;28;20032;-43
2023/07/29 02:53:01;;;;;;;5.93;3.40;;;;;;;22.18;42.45;99394.94;5071955;28;20086;-43
2023/07/29 02:55:26;;;;;;;6.15;3.83;;;;;;;22.15;42.78;99400.94;5072513;28;20028;-42
2023/07/29 02:57:52;;;;;;;5.60;3.40;;;;;;;22.14;42.74;99393.91;5072300;28;20028;-43
2023/07/29 03:00:17;;;;;;;4.60;3.50;;;;;;;22.12;42.74;99392.56;5072316;28;20503;-45
2023/07/29 03:02:43;;;;;;;6.53;3.40;;;;;;;22.12;42.71;99387.16;5071753;28;20028;-47
2023/07/29 03:05:08;;;;;;;4.35;3.42;;;;;;;22.04;42.68;99399.44;5072287;28;20025;-45
2023/07/29 03:07:34;;;;;;;4.63;3.25;;;;;;;21.97;42.60;99397.06;5072380;28;20189;-44
2023/07/29 03:09:59;;;;;;;3.85;3.28;;;;;;;22.01;43.13;99400.03;5071617;28;20468;-47
2023/07/29 03:12:25;;;;;;;4.95;3.42;;;;;;;22.04;42.67;99402.94;5071320;28;20486;-45
2023/07/29 03:14:50;;;;;;;4.65;3.40;;;;;;;22.00;43.11;99403.81;5071742;28;20038;-45
2023/07/29 03:17:15;;;;;;;5.28;3.60;;;;;;;21.93;43.52;99400.63;5071709;28;20086;-44
2023/07/29 03:19:41;;;;;;;4.68;3.60;;;;;;;22.01;43.24;99408.94;5071934;28;20017;-43
2023/07/29 03:22:06;;;;;;;4.25;3.20;;;;;;;22.17;42.74;99404.16;5071842;28;20380;-42
2023/07/29 03:24:32;;;;;;;4.15;3.20;;;;;;;22.16;43.15;99405.25;5071731;28;20445;-45
2023/07/29 03:26:58;;;;;;;3.90;3.38;;;;;;;22.18;42.62;99404.94;5071899;28;20021;-46
2023/07/29 03:29:23;;;;;;;7.30;3.80;;;;;;;22.35;42.62;99421.63;5071629;28;20035;-44
2023/07/29 03:31:49;;;;;;;5.20;3.60;;;;;;;22.34;42.28;99411.06;5071412;28;20043;-44
2023/07/29 03:34:14;;;;;;;5.10;3.28;;;;;;;22.20;42.29;99410.88;5071695;28;20028;-46
2023/07/29 03:36:40;;;;;;;5.43;3.70;;;;;;;22.74;41.32;99427.91;5071383;28;20052;-46
2023/07/29 03:39:07;;;;;;;4.20;3.28;;;;;;;23.14;40.35;99423.81;5072877;28;20029;-46
2023/07/29 03:41:33;;;;;;;4.45;3.30;;;;;;;23.22;40.27;99428.56;5091721;28;20046;-44
2023/07/29 03:43:58;;;;;;;5.93;3.30;;;;;;;22.90;40.54;99429.28;5091616;28;20115;-46
2023/07/29 03:46:24;;;;;;;4.03;3.30;;;;;;;22.83;40.73;99424.25;5091804;28;20038;-45
2023/07/29 03:48:50;;;;;;;4.53;3.40;;;;;;;22.74;41.52;99430.59;5091708;28;20110;-47
2023/07/29 03:51:15;;;;;;;3.90;3.50;;;;;;;22.86;41.43;99432.88;5091714;28;20108;-46
2023/07/29 03:53:41;;;;;;;5.57;3.50;;;;;;;23.22;40.68;99433.19;5091260;28;20106;-44
2023/07/29 03:56:07;;;;;;;4.57;3.45;;;;;;;23.40;40.53;99424.22;5091540;28;20023;-48
2023/07/29 03:58:33;;;;;;;4.20;3.30;;;;;;;23.57;40.29;99442.69;5090997;28;20683;-45
2023/07/29 04:00:58;;;;;;;5.88;3.67;;;;;;;23.96;39.58;99437.97;5090642;28;20028;-44
2023/07/29 04:03:24;;;;;;;4.95;3.60;;;;;;;24.22;39.13;99438.31;5090282;28;20410;-45
2023/07/29 04:05:49;;;;;;;3.53;3.00;;;;;;;24.56;38.94;99446.09;5090551;28;20032;-46
2023/07/29 04:08:15;;;;;;;6.72;3.55;;;;;;;24.91;38.05;99443.69;5091048;28;20423;-44
2023/07/29 04:10:40;;;;;;;14.27;10.05;;;;;;;25.16;37.48;99442.31;5090873;28;20024;-43
2023/07/29 04:13:06;;;;;;;24.75;17.40;;;;;;;25.24;37.01;99446.25;5091152;28;20024;-43
2023/07/29 04:15:31;;;;;;;24.10;16.63;;;;;;;25.61;36.54;99443.47;5091026;28;20514;-43
2023/07/29 04:17:57;;;;;;;29.90;20.30;;;;;;;25.98;35.96;99455.09;5090693;28;20016;-44
2023/07/29 04:20:22;;;;;;;6.07;3.75;;;;;;;25.98;35.79;99455.09;5090730;28;20464;-44
2023/07/29 04:22:48;;;;;;;4.60;3.20;;;;;;;26.32;35.35;99454.44;5090963;28;20024;-41
2023/07/29 04:25:13;;;;;;;4.57;3.22;;;;;;;26.16;35.59;99455.97;5091056;28;20415;-42
2023/07/29 04:27:39;;;;;;;3.80;3.17;;;;;;;25.53;36.55;99458.63;5090576;28;20016;-43
2023/07/29 04:30:05;;;;;;;5.70;3.38;;;;;;;25.33;36.92;99458.03;5081184;28;20020;-43
2023/07/29 04:32:30;;;;;;;5.18;3.53;;;;;;;25.53;36.86;99454.00;5070117;28;20024;-47
2023/07/29 04:34:56;;;;;;;3.63;3.05;;;;;;;25.98;36.27;99464.06;5070260;28;20028;-43
2023/07/29 04:37:21;;;;;;;5.13;3.25;;;;;;;26.05;36.24;99463.63;5090515;28;20049;-45
2023/07/29 04:39:46;;;;;;;6.30;3.42;;;;;;;26.37;35.63;99464.41;5090421;28;20028;-45
2023/07/29 04:42:12;;;;;;;5.68;3.85;;;;;;;26.53;35.30;99457.41;5101110;28;20493;-43
2023/07/29 04:44:37;;;;;;;11.55;6.90;;;;;;;26.71;35.04;99455.53;5090787;28;20063;-43
2023/07/29 04:47:03;;;;;;;12.85;8.43;;;;;;;26.63;35.07;99465.31;5094361;28;20030;-45
2023/07/29 04:49:28;;;;;;;5.05;3.17;;;;;;;27.18;34.16;99465.88;5097910;28;20034;-43
2023/07/29 04:51:54;;;;;;;3.88;3.10;;;;;;;27.28;34.17;99469.13;5098874;28;20024;-44
2023/07/29 04:54:20;;;;;;;4.32;3.50;;;;;;;27.84;32.83;99455.53;5090281;28;20107;-43
2023/07/29 04:56:46;;;;;;;5.25;3.50;;;;;;;27.06;34.03;99461.84;5090415;28;20020;-42
2023/07/29 04:59:12;;;;;;;5.30;3.47;;;;;;;27.13;34.57;99466.03;5090472;28;20040;-42
2023/07/29 05:01:38;;;;;;;4.68;3.15;;;;;;;27.31;33.97;99464.94;5090204;28;20028;-48
2023/07/29 05:04:04;;;;;;;4.35;3.20;;;;;;;27.76;33.41;99469.22;5090841;28;20100;-44
2023/07/29 05:06:29;;;;;;;3.58;3.20;;;;;;;28.25;32.65;99467.00;5090715;28;20124;-43
2023/07/29 05:08:57;;;;;;;6.93;3.50;;;;;;;28.40;32.30;99471.91;5088408;28;20021;-45
2023/07/29 05:11:25;;;;;;;8.83;3.30;;;;;;;28.89;32.03;99470.72;5090497;28;20504;-43
2023/07/29 05:13:50;;;;;;;5.93;3.22;;;;;;;28.99;31.85;99473.06;5090587;28;20055;-44
2023/07/29 05:16:16;;;;;;;3.28;2.78;;;;;;;29.65;31.05;99468.81;5092020;28;20055;-43
2023/07/29 05:18:41;;;;;;;10.20;7.60;;;;;;;29.73;31.18;99471.50;5094339;28;20028;-43
2023/07/29 05:21:08;;;;;;;5.93;4.13;;;;;;;29.46;31.37;99475.59;5094286;28;20110;-44
2023/07/29 05:23:33;;;;;;;6.72;3.50;;;;;;;29.69;30.94;99470.53;5094792;28;20032;-43
2023/07/29 05:25:59;;;;;;;4.22;3.45;;;;;;;29.68;30.98;99479.09;5094683;28;20012;-45
2023/07/29 05:28:24;;;;;;;4.15;3.53;;;;;;;30.08;30.39;99476.59;5094783;28;20095;-42
2023/07/29 05:30:50;;;;;;;6.10;3.55;;;;;;;30.38;29.83;99476.44;5094696;28;20020;-42
2023/07/29 05:33:15;;;;;;;5.43;3.95;;;;;;;30.59;29.07;99477.09;5094132;28;20035;-43
2023/07/29 05:35:41;;;;;;;5.55;4.63;;;;;;;31.61;28.37;99481.72;5094276;28;20036;-42
2023/07/29 05:38:08;;;;;;;7.32;4.13;;;;;;;30.99;28.53;99473.63;5094367;28;20036;-43
2023/07/29 05:40:33;;;;;;;5.85;3.10;;;;;;;30.91;28.00;99485.56;5094359;28;20034;-46
2023/07/29 05:42:59;;;;;;;7.22;3.00;;;;;;;30.95;27.67;99488.41;5094467;28;20016;-45
2023/07/29 05:45:24;;;;;;;5.53;3.00;;;;;;;31.12;27.57;99488.16;5094584;28;20107;-43
2023/07/29 05:47:50;;;;;;;3.65;2.83;;;;;;;31.52;27.55;99495.59;5093334;28;20058;-46
2023/07/29 05:50:15;;;;;;;6.55;3.05;;;;;;;32.09;26.59;99498.31;5087525;28;20028;-43
2023/07/29 05:52:41;;;;;;;4.47;3.20;;;;;;;31.80;26.27;99494.78;5091418;28;20021;-47
2023/07/29 05:55:07;;;;;;;5.88;2.83;;;;;;;31.61;26.87;99497.41;5082493;28;20507;-45
2023/07/29 05:57:32;;;;;;;7.15;2.90;;;;;;;31.44;26.62;99493.78;5073737;28;20414;-43
2023/07/29 05:59:58;;;;;;;4.05;2.80;;;;;;;31.98;26.39;99492.50;5073713;28;20017;-44
2023/07/29 06:02:23;;;;;;;4.05;2.67;;;;;;;32.33;25.98;99489.88;5074724;28;20028;-43
2023/07/29 06:04:48;;;;;;;5.53;3.03;;;;;;;32.50;25.77;99487.88;5087547;28;20399;-43
2023/07/29 06:07:14;;;;;;;5.45;3.20;;;;;;;32.16;26.07;99484.75;5073713;28;20044;-43
2023/07/29 06:09:40;;;;;;;5.70;3.67;;;;;;;32.16;26.27;99484.75;5073803;28;20472;-44
2023/07/29 06:12:06;;;;;;;5.22;2.75;;;;;;;32.29;26.12;99494.50;5073356;28;20052;-45
2023/07/29 06:14:31;;;;;;;5.10;2.95;;;;;;;32.30;26.15;99485.06;5073778;28;20024;-43
2023/07/29 06:16:57;;;;;;;4.93;2.97;;;;;;;33.04;25.36;99486.41;5072150;28;20087;-42
2023/07/29 06:19:22;;;;;;;4.57;2.75;;;;;;;33.09;25.33;99489.66;5073211;28;20380;-45
2023/07/29 06:21:48;;;;;;;4.72;2.90;;;;;;;32.71;25.60;99490.38;5073231;28;20474;-42
2023/07/29 06:24:13;;;;;;;3.25;2.80;;;;;;;32.66;25.43;99493.44;5072679;28;20025;-42
2023/07/29 06:26:39;;;;;;;3.42;2.95;;;;;;;32.67;25.60;99487.56;5071418;28;20016;-43
2023/07/29 06:29:04;;;;;;;3.90;3.00;;;;;;;32.78;25.45;99487.78;5071617;28;20138;-43
2023/07/29 06:31:30;;;;;;;3.95;2.88;;;;;;;33.84;24.36;99492.34;5072337;28;20047;-43
2023/07/29 06:33:55;;;;;;;4.88;2.70;;;;;;;33.83;23.95;99486.06;5072444;28;20038;-43
2023/07/29 06:36:21;;;;;;;4.85;3.75;;;;;;;33.50;24.57;99481.84;5072330;28;20119;-46
2023/07/29 06:38:47;;;;;;;6.72;3.10;;;;;;;33.19;24.58;99487.53;5072654;28;20029;-43
2023/07/29 06:41:12;;;;;;;3.60;2.60;;;;;;;33.25;24.27;99477.81;5073029;28;20059;-47
2023/07/29 06:43:37;;;;;;;3.88;2.55;;;;;;;33.52;24.24;99475.97;5072555;28;20085;-43
2023/07/29 06:46:03;;;;;;;3.60;2.60;;;;;;;33.50;24.14;99475.53;5072658;28;20027;-45
2023/07/29 06:48:28;;;;;;;2.85;2.47;;;;;;;34.46;22.90;99473.72;5072682;28;20043;-46
2023/07/29 06:50:55;;;;;;;3.47;2.42;;;;;;;34.12;23.44;99483.78;5072753;28;20103;-44
2023/07/29 06:53:21;;;;;;;5.13;2.47;;;;;;;33.79;23.96;99485.16;5073017;28;20044;-47
2023/07/29 06:55:46;;;;;;;6.63;2.90;;;;;;;33.87;23.88;99477.81;5072559;28;20385;-43
2023/07/29 06:58:11;;;;;;;3.60;2.50;;;;;;;34.01;23.75;99477.28;5072746;28;20533;-43
2023/07/29 07:00:37;;;;;;;3.42;2.60;;;;;;;34.46;23.50;99472.91;5072944;28;20036;-43
2023/07/29 07:03:02;;;;;;;7.78;3.33;;;;;;;35.15;22.79;99474.69;5072802;28;20043;-44
2023/07/29 07:05:28;;;;;;;5.47;2.70;;;;;;;34.90;23.02;99477.91;5072330;28;20502;-44
2023/07/29 07:07:53;;;;;;;5.65;2.85;;;;;;;34.96;22.59;99473.66;5072472;28;20334;-44
2023/07/29 07:10:19;;;;;;;3.70;2.60;;;;;;;34.71;23.15;99469.72;5072587;28;20032;-46
2023/07/29 07:12:44;;;;;;;3.50;2.60;;;;;;;34.41;23.06;99470.47;5072347;28;20070;-43
2023/07/29 07:15:10;;;;;;;3.45;2.90;;;;;;;34.79;23.40;99469.47;5071972;28;20069;-44
2023/07/29 07:17:35;;;;;;;3.47;2.58;;;;;;;34.96;23.02;99462.59;5073528;28;20035;-43
2023/07/29 07:20:01;;;;;;;4.07;3.22;;;;;;;35.75;22.58;99466.31;5071902;28;20024;-44
2023/07/29 07:22:26;;;;;;;3.47;2.70;;;;;;;35.65;22.23;99455.13;5070960;28;20185;-44
2023/07/29 07:24:52;;;;;;;6.32;2.95;;;;;;;35.19;22.84;99461.72;5071940;28;20028;-46
2023/07/29 07:27:17;;;;;;;5.55;3.03;;;;;;;35.31;22.91;99458.69;5072072;28;20118;-45
2023/07/29 07:29:43;;;;;;;4.57;3.17;;;;;;;35.24;22.54;99455.84;5071501;28;20547;-42
2023/07/29 07:32:08;;;;;;;5.50;3.13;;;;;;;35.24;22.84;99453.06;5072452;28;20027;-43
2023/07/29 07:34:34;;;;;;;4.88;2.75;;;;;;;35.85;22.44;99442.66;5072527;28;20020;-42
2023/07/29 07:37:00;;;;;;;4.18;3.05;;;;;;;35.44;22.91;99446.19;5071159;28;20136;-42
2023/07/29 07:39:26;;;;;;;6.57;3.22;;;;;;;35.32;22.92;99448.44;5071170;28;20032;-43
2023/07/29 07:41:51;;;;;;;4.72;2.80;;;;;;;35.37;23.46;99435.06;5071435;28;20070;-45
2023/07/29 07:44:17;;;;;;;5.00;2.78;;;;;;;35.22;23.13;99436.06;5071807;28;20426;-44
2023/07/29 07:46:43;;;;;;;3.40;2.63;;;;;;;35.54;23.25;99444.72;5071774;28;20021;-45
2023/07/29 07:49:08;;;;;;;6.68;2.80;;;;;;;36.14;22.53;99437.41;5071598;28;20027;-47
2023/07/29 07:51:34;;;;;;;3.70;2.55;;;;;;;35.69;22.97;99436.59;5071461;28;20060;-43
2023/07/29 07:53:59;;;;;;;3.95;2.83;;;;;;;35.53;23.10;99434.03;5071861;28;20096;-46
2023/07/29 07:56:25;;;;;;;4.13;2.90;;;;;;;35.58;22.94;99436.47;5071607;28;20022;-43
2023/07/29 07:58:50;;;;;;;4.25;2.85;;;;;;;35.60;22.93;99426.63;5071667;28;20464;-44
2023/07/29 08:01:16;;;;;;;4.55;2.80;;;;;;;36.05;22.88;99425.84;5071769;28;20021;-42
2023/07/29 08:03:41;;;;;;;5.18;2.90;;;;;;;36.66;22.28;99423.53;5071923;28;20024;-41
2023/07/29 08:06:06;;;;;;;4.88;2.80;;;;;;;36.67;22.26;99414.03;5071743;28;20028;-45
2023/07/29 08:08:32;;;;;;;6.47;2.72;;;;;;;36.27;22.26;99411.00;5071538;28;20041;-42
2023/07/29 08:10:57;;;;;;;4.32;2.70;;;;;;;36.38;22.22;99411.06;5071813;28;20013;-42
2023/07/29 08:13:24;;;;;;;4.13;2.90;;;;;;;36.43;22.57;99410.72;5071867;28;20020;-45
2023/07/29 08:15:53;;;;;;;4.35;2.90;;;;;;;36.31;22.72;99406.28;5071401;28;20059;-43
2023/07/29 08:18:18;;;;;;;7.47;3.00;;;;;;;36.13;22.60;99408.88;5071379;28;20138;-44
2023/07/29 08:20:58;;;;;;;4.38;3.22;;;;;;;36.27;22.52;99405.47;5071351;28;20440;-44
2023/07/29 08:23:26;;;;;;;5.78;3.22;;;;;;;36.40;22.17;99406.75;5071650;28;20084;-43
2023/07/29 08:25:53;;;;;;;;;;;;;;;35.27;23.11;99399.78;5071847;28;20468;-44
2023/07/29 08:28:18;;;;;;;4.15;3.00;;;;;;;35.15;23.27;99397.28;5071278;28;20366;-44
2023/07/29 08:30:43;;;;;;;8.93;3.20;;;;;;;35.63;22.93;99392.66;5071202;28;20025;-44
2023/07/29 08:33:09;;;;;;;3.63;2.78;;;;;;;35.81;22.68;99387.31;5071282;28;20031;-43
2023/07/29 08:35:34;;;;;;;4.05;2.92;;;;;;;35.90;22.63;99386.97;5071002;28;20047;-43
2023/07/29 08:38:00;;;;;;;4.28;3.25;;;;;;;36.07;22.38;99388.28;5071390;28;20020;-43
2023/07/29 08:40:29;;;;;;;4.72;3.08;;;;;;;36.35;22.43;99393.25;5071215;28;20103;-44
2023/07/29 08:42:58;;;;;;;4.32;2.78;;;;;;;36.54;21.34;99383.88;5071085;28;20040;-44
2023/07/29 08:45:25;;;;;;;4.18;3.17;;;;;;;36.45;21.32;99379.84;5070844;28;20021;-44
2023/07/29 08:47:58;;;;;;;6.22;2.67;;;;;;;36.57;21.56;99374.75;5071403;28;20016;-43
2023/07/29 08:50:24;;;;;;;5.05;2.90;;;;;;;35.81;22.23;99367.94;5070508;28;20126;-43
2023/07/29 08:52:52;;;;;;;5.40;2.95;;;;;;;35.78;22.74;99371.47;5070876;28;20028;-43
2023/07/29 08:55:18;;;;;;;3.63;2.92;;;;;;;35.50;22.70;99360.13;5070979;28;20028;-45
2023/07/29 08:57:44;;;;;;;4.40;2.78;;;;;;;35.17;22.73;99358.97;5071078;28;20021;-44
2023/07/29 09:00:11;;;;;;;4.70;3.15;;;;;;;35.67;22.55;99365.00;5070935;28;20051;-44
2023/07/29 09:02:36;;;;;;;3.35;2.70;;;;;;;36.13;21.86;99358.25;5070770;28;20452;-44
2023/07/29 09:05:02;;;;;;;3.10;2.80;;;;;;;36.69;21.44;99359.81;5070868;28;20048;-43
2023/07/29 09:07:29;;;;;;;3.83;2.60;;;;;;;37.47;21.05;99357.66;5070647;28;20028;-43
2023/07/29 09:09:54;;;;;;;3.17;2.88;;;;;;;37.68;20.30;99354.13;5070765;28;20036;-46
2023/07/29 09:12:20;;;;;;;4.90;2.70;;;;;;;37.31;20.54;99356.03;5071035;28;20097;-45
2023/07/29 09:14:45;;;;;;;4.18;2.90;;;;;;;37.11;20.87;99355.59;5070785;28;20021;-42
2023/07/29 09:17:11;;;;;;;3.58;2.90;;;;;;;37.02;20.29;99351.63;5070438;28;20086;-42
2023/07/29 09:19:36;;;;;;;5.25;3.05;;;;;;;36.75;20.47;99352.72;5070594;28;20408;-45
2023/07/29 09:22:02;;;;;;;3.70;2.92;;;;;;;36.85;21.10;99345.63;5070777;28;20058;-45
2023/07/29 09:24:32;;;;;;;3.05;2.70;;;;;;;37.27;20.31;99335.06;5070753;28;20095;-43
2023/07/29 09:26:57;;;;;;;6.07;2.78;;;;;;;37.67;20.20;99339.47;5070579;28;20171;-43
2023/07/29 09:29:23;;;;;;;4.55;2.95;;;;;;;37.70;20.08;99327.56;5071235;28;20020;-43
2023/07/29 09:31:49;;;;;;;3.72;3.00;;;;;;;37.61;19.38;99332.72;5070632;28;20044;-44
2023/07/29 09:34:16;;;;;;;5.05;3.03;;;;;;;36.48;20.10;99330.00;5070757;28;20028;-43
2023/07/29 09:36:42;;;;;;;3.92;2.90;;;;;;;36.12;20.78;99321.47;5070573;28;20052;-44
2023/07/29 09:39:12;;;;;;;3.28;2.67;;;;;;;35.53;20.93;99298.47;5070690;28;20033;-43
2023/07/29 09:41:38;;;;;;;3.83;2.60;;;;;;;36.08;20.46;99312.38;5070730;28;20475;-43
2023/07/29 09:44:04;;;;;;;2.90;2.47;;;;;;;36.69;19.74;99309.13;5070605;28;20122;-45
2023/07/29 09:46:37;;;;;;;4.15;2.67;;;;;;;37.73;19.44;99312.88;5070493;28;20024;-43
2023/07/29 09:49:07;;;;;;;3.05;2.50;;;;;;;37.29;18.11;99311.28;5070772;28;20071;-45
2023/07/29 09:51:39;;;;;;;3.22;2.50;;;;;;;36.89;19.20;99301.28;5070439;28;20025;-44
2023/07/29 09:54:04;;;;;;;3.80;2.70;;;;;;;37.13;18.99;99297.78;5070512;28;20024;-43
2023/07/29 09:56:30;;;;;;;4.05;2.70;;;;;;;37.37;18.94;99301.75;5070392;28;20024;-43
2023/07/29 09:58:57;;;;;;;5.22;2.60;;;;;;;37.47;18.53;99297.41;5070485;28;20020;-43
2023/07/29 10:01:23;;;;;;;3.17;2.88;;;;;;;37.30;18.31;99303.72;5070524;28;20133;-44
2023/07/29 10:03:49;;;;;;;3.38;2.90;;;;;;;37.03;18.63;99292.19;5073069;28;20020;-44
2023/07/29 10:06:15;;;;;;;3.90;2.83;;;;;;;37.31;18.65;99295.03;5073597;28;20464;-44
2023/07/29 10:08:42;;;;;;;3.25;2.70;;;;;;;37.36;18.57;99294.63;5073627;28;20295;-46
2023/07/29 10:11:09;;;;;;;4.10;2.75;;;;;;;37.22;18.77;99293.84;5073931;28;20028;-44
2023/07/29 10:13:37;;;;;;;6.68;3.00;;;;;;;37.05;18.91;99293.41;5073880;28;20028;-44
2023/07/29 10:16:04;;;;;;;5.88;3.33;;;;;;;37.15;19.14;99287.09;5073932;28;20199;-46
2023/07/29 10:18:31;;;;;;;3.63;2.43;;;;;;;37.50;18.69;99285.50;5073573;28;20503;-43
2023/07/29 10:20:58;;;;;;;3.53;2.60;;;;;;;37.36;18.33;99283.53;5073532;28;20707;-43
2023/07/29 10:23:32;;;;;;;2.72;2.20;;;;;;;37.14;18.62;99276.41;5073698;28;20021;-45
2023/07/29 10:26:05;;;;;;;3.10;2.63;;;;;;;37.57;18.71;99279.19;5073828;28;20443;-44
2023/07/29 10:28:32;;;;;;;3.63;2.83;;;;;;;37.38;18.44;99285.94;5073224;28;20023;-43
2023/07/29 10:30:59;;;;;;;3.92;2.75;;;;;;;37.45;18.26;99279.56;5073418;28;20028;-45
2023/07/29 10:33:25;;;;;;;3.42;3.03;;;;;;;37.98;17.84;99275.16;5073242;28;20033;-44
2023/07/29 10:35:52;;;;;;;3.47;2.78;;;;;;;37.88;17.78;99285.13;5073121;28;20037;-43
2023/07/29 10:38:21;;;;;;;4.95;2.60;;;;;;;37.82;18.73;99281.94;5055145;28;20488;-43
2023/07/29 10:40:59;;;;;;;4.65;2.65;;;;;;;38.18;18.20;99270.78;5073887;28;20100;-45
2023/07/29 10:43:35;;;;;;;3.03;2.45;;;;;;;38.29;17.55;99265.97;5073370;28;20100;-44
2023/07/29 10:46:17;;;;;;;3.22;2.60;;;;;;;38.23;17.59;99258.44;5073266;28;20032;-44
2023/07/29 10:48:51;;;;;;;3.47;2.75;;;;;;;38.08;17.65;99249.38;5073527;28;20024;-44
2023/07/29 10:51:25;;;;;;;3.50;2.47;;;;;;;38.20;17.96;99254.50;5073218;28;20048;-44
2023/07/29 10:53:55;;;;;;;4.63;2.40;;;;;;;38.46;17.40;99253.22;5055329;28;20036;-44
2023/07/29 10:56:32;;;;;;;3.42;2.65;;;;;;;38.44;17.66;99252.81;5073084;28;20048;-46
2023/07/29 10:59:12;;;;;;;3.53;2.58;;;;;;;38.09;17.79;99243.44;5072990;28;20050;-46
2023/07/29 11:01:43;;;;;;;3.35;2.55;;;;;;;38.00;17.40;99240.25;5072928;28;20028;-43
2023/07/29 11:04:23;;;;;;;6.40;4.18;;;;;;;38.08;17.27;99236.31;5072744;28;20028;-44
2023/07/29 11:07:07;;;;;;;5.43;3.47;;;;;;;38.35;16.96;99238.56;5080553;28;20059;-45
2023/07/29 11:09:50;;;;;;;2.78;2.50;;;;;;;37.86;17.60;99230.00;5072545;28;20036;-45
2023/07/29 11:12:39;;;;;;;2.63;2.40;;;;;;;37.34;17.95;99235.22;5072216;28;20032;-46
2023/07/29 11:15:04;;;;;;;3.60;2.50;;;;;;;37.53;17.94;99229.25;5072037;28;20067;-44
2023/07/29 11:17:36;;;;;;;4.65;2.45;;;;;;;37.80;17.63;99234.38;5071619;28;20052;-42
2023/07/29 11:20:03;;;;;;;3.33;2.60;;;;;;;37.69;17.59;99228.84;5072352;28;20028;-43
2023/07/29 11:22:30;;;;;;;2.35;2.15;;;;;;;37.96;17.82;99220.03;5072420;28;20103;-46
2023/07/29 11:24:55;;;;;;;3.70;2.47;;;;;;;37.65;17.73;99216.16;5072322;28;20036;-42
2023/07/29 11:27:21;;;;;;;2.38;2.17;;;;;;;37.48;17.92;99214.97;5071724;28;20029;-46
2023/07/29 11:29:47;;;;;;;4.38;2.42;;;;;;;37.97;17.58;99215.25;5070889;28;20025;-43
2023/07/29 11:32:13;;;;;;;3.28;2.40;;;;;;;38.89;17.41;99204.91;5071318;28;20079;-43